Time;durP1;ratioP1;P1;durP2;ratioP2;P2;SDS_P1;SDS_P2;PMS_P1;PMS_P2;Temp;Humidity;BMP_temperature;BMP_pressure;BME280_temperature;BME280_humidity;BME280_pressure;Samples;Min_cycle;Max_cycle;Signal;HPM_P1;HPM_P2
2022/11/01 00:01:37;;;;;;;7.43;5.27;;;16.60;99.90;;;;;;5058981;28;20953;-61
2022/11/01 00:04:04;;;;;;;8.10;5.27;;;16.60;99.90;;;;;;5058440;28;20481;-62
2022/11/01 00:06:32;;;;;;;9.13;5.83;;;16.60;99.90;;;;;;5058523;28;20485;-62
2022/11/01 00:08:59;;;;;;;14.80;6.80;;;16.50;99.90;;;;;;5059143;28;20462;-62
2022/11/01 00:11:29;;;;;;;13.13;6.03;;;16.40;99.90;;;;;;5059057;28;20569;-63
2022/11/01 00:13:56;;;;;;;6.77;5.00;;;16.40;99.90;;;;;;5058853;28;20760;-63
2022/11/01 00:16:26;;;;;;;9.30;6.00;;;16.40;99.90;;;;;;5059105;28;20496;-61
2022/11/01 00:18:53;;;;;;;12.17;5.20;;;16.30;99.90;;;;;;5058842;28;20472;-62
2022/11/01 00:21:21;;;;;;;12.67;5.33;;;16.30;99.90;;;;;;5058929;28;20463;-62
2022/11/01 00:23:52;;;;;;;6.97;5.07;;;16.20;99.90;;;;;;5058794;28;20463;-62
2022/11/01 00:26:21;;;;;;;11.20;5.60;;;16.20;99.90;;;;;;5058850;28;20433;-61
2022/11/01 00:28:49;;;;;;;6.60;5.40;;;16.10;99.90;;;;;;5058598;28;20515;-63
2022/11/01 00:31:18;;;;;;;9.57;5.43;;;16.10;99.90;;;;;;5057995;28;20539;-62
2022/11/01 00:33:47;;;;;;;9.10;6.00;;;16.00;99.90;;;;;;5058293;28;20745;-64
2022/11/01 00:36:14;;;;;;;7.13;5.07;;;15.90;99.90;;;;;;5058405;28;20572;-63
2022/11/01 00:38:42;;;;;;;7.83;5.50;;;15.80;99.90;;;;;;5058322;28;20466;-63
2022/11/01 00:41:09;;;;;;;10.53;5.63;;;15.80;99.90;;;;;;5058076;28;20469;-62
2022/11/01 00:43:36;;;;;;;11.67;5.67;;;15.70;1.00;;;;;;5057480;28;20432;-60
2022/11/01 00:46:04;;;;;;;12.97;6.40;;;15.60;1.00;;;;;;5056348;28;20433;-57
2022/11/01 00:48:32;;;;;;;9.67;6.47;;;15.60;1.00;;;;;;5057657;28;20443;-59
2022/11/01 00:51:01;;;;;;;10.27;6.87;;;15.50;1.00;;;;;;5058213;28;20866;-60
2022/11/01 00:53:28;;;;;;;10.77;6.73;;;15.40;1.00;;;;;;5057540;28;20432;-61
2022/11/01 00:56:01;;;;;;;13.50;5.67;;;15.30;1.00;;;;;;5057700;28;20501;-60
2022/11/01 00:58:28;;;;;;;8.17;6.37;;;15.30;1.00;;;;;;5057700;28;20465;-60
2022/11/01 01:00:55;;;;;;;9.03;5.97;;;15.30;1.00;;;;;;5057738;28;20561;-59
2022/11/01 01:03:25;;;;;;;12.80;6.90;;;15.20;1.00;;;;;;5057520;28;20438;-61
2022/11/01 01:05:54;;;;;;;10.77;6.30;;;15.20;1.00;;;;;;5057115;28;20464;-62
2022/11/01 01:08:23;;;;;;;8.67;6.60;;;15.10;1.00;;;;;;5056998;28;20441;-63
2022/11/01 01:10:50;;;;;;;7.77;5.83;;;15.10;1.00;;;;;;5057383;28;20788;-62
2022/11/01 01:13:18;;;;;;;9.23;6.90;;;15.10;1.00;;;;;;5056731;28;20556;-63
2022/11/01 01:15:45;;;;;;;13.70;7.33;;;15.10;1.00;;;;;;5057584;28;20501;-62
2022/11/01 01:18:13;;;;;;;10.17;7.67;;;15.10;1.00;;;;;;5057188;28;20535;-62
2022/11/01 01:20:40;;;;;;;15.50;6.70;;;15.10;1.00;;;;;;5057505;28;20469;-62
2022/11/01 01:23:07;;;;;;;8.47;6.47;;;15.00;1.00;;;;;;5057351;28;20468;-63
2022/11/01 01:25:41;;;;;;;15.73;7.33;;;15.00;1.00;;;;;;5056722;28;20467;-63
2022/11/01 01:28:09;;;;;;;8.50;6.50;;;15.00;1.00;;;;;;5057208;28;20462;-62
2022/11/01 01:30:40;;;;;;;14.13;6.97;;;15.00;1.00;;;;;;5057360;28;20488;-64
2022/11/01 01:33:07;;;;;;;11.63;6.60;;;14.90;1.00;;;;;;5057174;28;20459;-62
2022/11/01 01:35:34;;;;;;;10.67;6.60;;;14.90;1.00;;;;;;5055583;28;20537;-64
2022/11/01 01:38:05;;;;;;;10.47;6.77;;;14.90;1.00;;;;;;5056598;28;20466;-63
2022/11/01 01:40:32;;;;;;;11.30;6.60;;;14.90;1.00;;;;;;5056955;28;20466;-63
2022/11/01 01:43:01;;;;;;;12.40;6.80;;;14.90;1.00;;;;;;5057288;28;20461;-63
2022/11/01 01:45:35;;;;;;;11.30;6.73;;;14.90;1.00;;;;;;5056937;28;20958;-64
2022/11/01 01:48:10;;;;;;;14.67;6.00;;;15.00;1.00;;;;;;5058898;28;20465;-63
2022/11/01 01:50:43;;;;;;;9.63;6.23;;;15.00;1.00;;;;;;5061108;28;20888;-64
2022/11/01 01:53:15;;;;;;;14.87;6.67;;;15.10;1.00;;;;;;5061421;28;20760;-64
2022/11/01 01:55:49;;;;;;;9.77;6.27;;;15.00;1.00;;;;;;5060505;28;20493;-64
2022/11/01 01:58:21;;;;;;;12.20;6.50;;;15.00;1.00;;;;;;5061030;28;20450;-63
2022/11/01 02:00:49;;;;;;;9.60;6.00;;;15.00;1.00;;;;;;5060359;28;20502;-65
2022/11/01 02:03:20;;;;;;;15.00;6.93;;;15.00;1.00;;;;;;5060106;28;20553;-64
2022/11/01 02:05:54;;;;;;;10.00;6.20;;;15.00;1.00;;;;;;5060417;28;20458;-64
2022/11/01 02:08:26;;;;;;;14.10;6.27;;;15.00;1.00;;;;;;5061140;28;20439;-63
2022/11/01 02:10:56;;;;;;;9.80;6.80;;;15.10;1.00;;;;;;5060275;28;20882;-64
2022/11/01 02:13:25;;;;;;;11.60;6.47;;;15.10;1.00;;;;;;5060168;28;20592;-63
2022/11/01 02:16:28;;;;;;;8.90;5.97;;;15.10;1.00;;;;;;5060884;28;20496;-64
2022/11/01 02:19:08;;;;;;;8.57;6.03;;;15.10;1.00;;;;;;5040830;28;20774;-64
2022/11/01 02:21:55;;;;;;;10.20;6.50;;;15.20;1.00;;;;;;5065832;28;20540;-64
2022/11/01 02:25:09;;;;;;;13.27;6.30;;;15.10;1.00;;;;;;5078499;28;20432;-65
2022/11/01 02:28:00;;;;;;;10.87;6.17;;;15.10;1.00;;;;;;5035592;28;20470;-65
2022/11/01 02:30:36;;;;;;;12.70;6.10;;;15.10;1.00;;;;;;5059136;28;20458;-65
2022/11/01 02:33:17;;;;;;;14.27;6.47;;;15.10;1.00;;;;;;5060041;28;20464;-65
2022/11/01 02:35:56;;;;;;;8.50;5.33;;;15.10;1.00;;;;;;5060510;28;20516;-66
2022/11/01 02:38:33;;;;;;;13.83;7.10;;;15.10;1.00;;;;;;5066990;28;20473;-65
2022/11/01 02:41:10;;;;;;;8.30;6.40;;;15.20;1.00;;;;;;5078133;28;20477;-64
2022/11/01 02:43:46;;;;;;;11.70;6.23;;;15.20;1.00;;;;;;5079248;28;20464;-65
2022/11/01 02:49:00;;;;;;;9.60;5.70;;;15.20;1.00;;;;;;5070767;28;20445;-65
2022/11/01 02:51:32;;;;;;;9.57;5.20;;;15.30;1.00;;;;;;5059426;28;20503;-65
2022/11/01 02:54:01;;;;;;;8.80;5.73;;;15.30;1.00;;;;;;5059907;28;20462;-65
2022/11/01 02:56:29;;;;;;;8.33;5.90;;;15.20;1.00;;;;;;5059677;28;20494;-65
2022/11/01 02:58:58;;;;;;;15.43;6.30;;;15.20;1.00;;;;;;5058618;28;20551;-65
2022/11/01 03:01:33;;;;;;;10.33;5.73;;;15.20;1.00;;;;;;5059331;28;20519;-66
2022/11/01 03:04:02;;;;;;;9.00;5.27;;;15.20;1.00;;;;;;5059004;28;20488;-65
2022/11/01 03:06:34;;;;;;;9.63;6.57;;;15.30;1.00;;;;;;5059506;28;20512;-64
2022/11/01 03:09:04;;;;;;;14.57;4.90;;;15.30;1.00;;;;;;5074821;28;20481;-65
2022/11/01 03:11:39;;;;;;;6.83;5.50;;;15.30;1.00;;;;;;5079037;28;20440;-65
2022/11/01 03:14:17;;;;;;;12.17;6.30;;;15.30;1.00;;;;;;5079416;28;20787;-65
2022/11/01 03:16:51;;;;;;;10.47;6.20;;;15.30;1.00;;;;;;5079627;28;20599;-65
2022/11/01 03:19:34;;;;;;;6.97;5.80;;;15.30;1.00;;;;;;5079279;28;21051;-66
2022/11/01 03:22:08;;;;;;;7.10;5.97;;;15.30;1.00;;;;;;5079821;28;20865;-65
2022/11/01 03:24:43;;;;;;;12.70;6.20;;;15.30;1.00;;;;;;5079401;28;20461;-65
2022/11/01 03:27:15;;;;;;;9.40;6.17;;;15.30;1.00;;;;;;5079495;28;20453;-66
2022/11/01 03:29:47;;;;;;;7.20;5.30;;;15.40;1.00;;;;;;5079362;28;20468;-65
2022/11/01 03:32:16;;;;;;;10.10;6.43;;;15.40;1.00;;;;;;5079170;28;20458;-66
2022/11/01 03:34:46;;;;;;;8.30;4.90;;;15.50;1.00;;;;;;5079427;28;20976;-65
2022/11/01 03:37:15;;;;;;;8.53;6.07;;;15.50;1.00;;;;;;5079398;28;20487;-65
2022/11/01 03:39:44;;;;;;;6.27;4.80;;;15.50;1.00;;;;;;5078848;28;20522;-63
2022/11/01 03:42:15;;;;;;;8.60;5.47;;;15.50;1.00;;;;;;5078812;28;20465;-66
2022/11/01 03:44:48;;;;;;;7.10;5.70;;;15.50;1.00;;;;;;5077706;28;20549;-65
2022/11/01 03:47:16;;;;;;;7.53;5.70;;;15.40;1.00;;;;;;5079026;28;20549;-66
2022/11/01 03:49:44;;;;;;;9.70;6.47;;;15.50;1.00;;;;;;5078603;28;20559;-67
2022/11/01 03:52:11;;;;;;;7.90;5.43;;;15.50;1.00;;;;;;5078833;28;20768;-65
2022/11/01 03:54:39;;;;;;;7.33;5.50;;;15.40;1.00;;;;;;5079133;28;20936;-64
2022/11/01 03:57:06;;;;;;;9.43;6.37;;;15.50;1.00;;;;;;5078935;28;20571;-66
2022/11/01 03:59:34;;;;;;;8.20;5.47;;;15.40;1.00;;;;;;5078024;28;20436;-65
2022/11/01 04:02:01;;;;;;;7.17;6.40;;;15.50;1.00;;;;;;5078122;28;20461;-65
2022/11/01 04:04:28;;;;;;;8.13;5.20;;;15.40;1.00;;;;;;5078349;28;20472;-65
2022/11/01 04:06:57;;;;;;;8.40;5.20;;;15.40;1.00;;;;;;5078570;28;20457;-65
2022/11/01 04:09:24;;;;;;;9.53;6.87;;;15.40;1.00;;;;;;5078207;28;20461;-64
2022/11/01 04:11:54;;;;;;;9.60;5.37;;;15.40;1.00;;;;;;5078089;28;20567;-65
2022/11/01 04:22:37;;;;;;;7.90;5.53;;;15.30;1.00;;;;;;5058275;28;20905;-64
2022/11/01 04:25:05;;;;;;;6.60;5.20;;;15.40;1.00;;;;;;5058221;28;20469;-64
2022/11/01 04:27:32;;;;;;;7.27;5.40;;;15.40;1.00;;;;;;5057700;28;20458;-64
2022/11/01 04:29:59;;;;;;;7.47;5.03;;;15.40;1.00;;;;;;5057983;28;20451;-63
2022/11/01 04:32:27;;;;;;;8.93;5.07;;;15.40;1.00;;;;;;5057691;28;20462;-64
2022/11/01 04:34:54;;;;;;;8.03;5.30;;;15.40;1.00;;;;;;5058003;28;20879;-64
2022/11/01 04:37:21;;;;;;;12.00;5.53;;;15.40;1.00;;;;;;5057405;28;20469;-64
2022/11/01 04:39:50;;;;;;;8.60;4.80;;;15.50;1.00;;;;;;5057851;28;20484;-63
2022/11/01 04:42:20;;;;;;;9.10;5.63;;;15.50;1.00;;;;;;5057815;28;20506;-63
2022/11/01 04:44:48;;;;;;;9.60;4.93;;;15.50;1.00;;;;;;5057855;28;20462;-63
2022/11/01 04:47:15;;;;;;;8.73;4.93;;;15.50;1.00;;;;;;5057614;28;20762;-63
2022/11/01 04:49:42;;;;;;;8.13;5.20;;;15.50;1.00;;;;;;5057445;28;20462;-63
2022/11/01 04:52:09;;;;;;;7.30;4.70;;;15.50;1.00;;;;;;5057628;28;20462;-63
2022/11/01 04:54:39;;;;;;;6.43;4.60;;;15.50;1.00;;;;;;5057615;28;20466;-63
2022/11/01 04:57:21;;;;;;;10.03;5.37;;;15.60;1.00;;;;;;5057650;28;20465;-63
2022/11/01 04:59:48;;;;;;;7.53;5.30;;;15.50;1.00;;;;;;5057221;28;20463;-63
2022/11/01 05:02:16;;;;;;;6.50;4.67;;;15.60;1.00;;;;;;5057097;28;20480;-63
2022/11/01 05:04:44;;;;;;;6.10;4.53;;;15.60;1.00;;;;;;5057890;28;20469;-63
2022/11/01 05:07:13;;;;;;;8.97;5.00;;;15.60;1.00;;;;;;5057558;28;20465;-63
2022/11/01 05:09:41;;;;;;;5.73;4.60;;;15.70;1.00;;;;;;5057143;28;20515;-63
2022/11/01 05:12:09;;;;;;;7.73;4.70;;;15.70;1.00;;;;;;5057472;28;20486;-63
2022/11/01 05:14:37;;;;;;;6.70;4.47;;;15.70;1.00;;;;;;5057294;28;20462;-63
2022/11/01 05:17:04;;;;;;;8.63;5.00;;;15.70;1.00;;;;;;5062776;28;20490;-62
2022/11/01 05:19:31;;;;;;;5.83;4.07;;;15.70;1.00;;;;;;5057244;28;20925;-63
2022/11/01 05:22:02;;;;;;;7.67;4.70;;;15.70;1.00;;;;;;5056672;28;20853;-63
2022/11/01 05:24:29;;;;;;;6.63;5.00;;;15.60;1.00;;;;;;5057727;28;20821;-62
2022/11/01 05:26:56;;;;;;;10.57;4.37;;;15.60;1.00;;;;;;5057460;28;20433;-63
2022/11/01 05:29:25;;;;;;;7.37;4.90;;;15.70;1.00;;;;;;5056982;28;20556;-63
2022/11/01 05:31:52;;;;;;;6.60;4.70;;;15.70;1.00;;;;;;5057501;28;20462;-63
2022/11/01 05:34:20;;;;;;;7.30;4.77;;;15.70;1.00;;;;;;5056857;28;20462;-62
2022/11/01 05:36:47;;;;;;;6.23;4.20;;;15.60;1.00;;;;;;5057333;28;20794;-62
2022/11/01 05:39:14;;;;;;;8.53;4.67;;;15.60;1.00;;;;;;5057619;28;20462;-62
2022/11/01 05:41:41;;;;;;;6.73;4.53;;;15.60;1.00;;;;;;5057066;28;20746;-63
2022/11/01 05:44:09;;;;;;;8.30;5.40;;;15.60;1.00;;;;;;5057103;28;20469;-62
2022/11/01 05:46:37;;;;;;;12.27;4.97;;;15.60;1.00;;;;;;5057251;28;20895;-63
2022/11/01 05:49:04;;;;;;;9.63;4.83;;;15.70;1.00;;;;;;5057631;28;20437;-63
2022/11/01 05:51:33;;;;;;;9.87;5.50;;;15.60;1.00;;;;;;5073210;28;20456;-63
2022/11/01 05:54:01;;;;;;;9.83;4.60;;;15.60;1.00;;;;;;5075550;28;20457;-62
2022/11/01 05:56:29;;;;;;;9.50;4.40;;;15.60;1.00;;;;;;5075472;28;20467;-63
2022/11/01 05:58:56;;;;;;;9.87;5.60;;;15.60;1.00;;;;;;5072551;28;20453;-62
2022/11/01 06:01:23;;;;;;;12.10;5.00;;;15.60;1.00;;;;;;5075132;28;20457;-60
2022/11/01 06:03:52;;;;;;;8.50;5.17;;;15.70;1.00;;;;;;5074866;28;20629;-62
2022/11/01 06:06:19;;;;;;;7.73;4.40;;;15.70;1.00;;;;;;5075594;28;20457;-61
2022/11/01 06:08:46;;;;;;;6.40;4.60;;;15.70;1.00;;;;;;5075395;28;20449;-61
2022/11/01 06:11:13;;;;;;;10.00;5.20;;;15.70;1.00;;;;;;5075897;28;20457;-62
2022/11/01 06:13:40;;;;;;;9.30;5.37;;;15.80;1.00;;;;;;5074935;28;20508;-61
2022/11/01 06:16:08;;;;;;;7.47;5.60;;;15.80;1.00;;;;;;5075082;28;20552;-62
2022/11/01 06:18:36;;;;;;;7.00;4.73;;;15.80;1.00;;;;;;5075608;28;20453;-62
2022/11/01 06:21:04;;;;;;;6.43;4.23;;;15.80;1.00;;;;;;5075147;28;20503;-61
2022/11/01 06:23:32;;;;;;;9.67;4.50;;;15.80;1.00;;;;;;5074962;28;20456;-62
2022/11/01 06:26:05;;;;;;;5.20;3.63;;;15.80;1.00;;;;;;5075718;28;20480;-62
2022/11/01 06:28:32;;;;;;;3.63;3.30;;;15.80;1.00;;;;;;5075273;28;20460;-62
2022/11/01 06:31:01;;;;;;;6.53;3.70;;;15.80;1.00;;;;;;5075321;28;20465;-63
2022/11/01 06:33:28;;;;;;;4.57;3.27;;;15.70;1.00;;;;;;5076638;28;20468;-62
2022/11/01 06:35:55;;;;;;;7.43;3.87;;;15.70;1.00;;;;;;5076738;28;20863;-63
2022/11/01 06:38:24;;;;;;;5.80;4.13;;;15.70;1.00;;;;;;5077409;28;20491;-63
2022/11/01 06:40:51;;;;;;;5.00;2.97;;;15.70;99.90;;;;;;5079562;28;20528;-63
2022/11/01 06:43:18;;;;;;;5.90;3.30;;;15.70;99.90;;;;;;5079289;28;20548;-62
2022/11/01 06:45:45;;;;;;;4.53;3.07;;;15.70;99.90;;;;;;5079769;28;20431;-64
2022/11/01 06:48:15;;;;;;;4.40;3.00;;;15.70;99.90;;;;;;5080693;28;20754;-62
2022/11/01 06:50:43;;;;;;;8.27;3.00;;;15.70;99.90;;;;;;5080289;28;20461;-63
2022/11/01 06:53:10;;;;;;;4.80;3.00;;;15.60;99.90;;;;;;5080663;28;20463;-63
2022/11/01 06:55:39;;;;;;;6.37;2.80;;;15.60;99.90;;;;;;5080208;28;20526;-64
2022/11/01 06:58:06;;;;;;;3.57;2.37;;;15.60;99.90;;;;;;5080263;28;20493;-63
2022/11/01 07:00:34;;;;;;;6.87;2.90;;;15.50;99.90;;;;;;5079985;28;20435;-61
2022/11/01 07:03:03;;;;;;;5.63;2.70;;;15.50;99.90;;;;;;5080338;28;20446;-62
2022/11/01 07:05:34;;;;;;;4.77;3.20;;;15.40;99.90;;;;;;5079366;28;20461;-62
2022/11/01 07:08:02;;;;;;;3.30;2.30;;;15.20;99.90;;;;;;5080133;28;20431;-62
2022/11/01 07:10:30;;;;;;;6.00;2.50;;;15.10;99.90;;;;;;5080900;28;20468;-63
2022/11/01 07:13:16;;;;;;;4.20;2.40;;;15.00;99.90;;;;;;5079650;28;20500;-62
2022/11/01 07:15:43;;;;;;;4.13;2.30;;;14.90;99.90;;;;;;5079926;28;20461;-62
2022/11/01 07:18:13;;;;;;;3.60;1.90;;;14.70;99.90;;;;;;5079871;28;20869;-63
2022/11/01 07:20:41;;;;;;;6.63;2.80;;;14.70;99.90;;;;;;5080323;28;20439;-63
2022/11/01 07:23:11;;;;;;;3.70;2.20;;;14.60;99.90;;;;;;5079333;28;20804;-64
2022/11/01 07:25:40;;;;;;;4.00;2.30;;;14.50;99.90;;;;;;5079233;28;20432;-63
2022/11/01 07:28:09;;;;;;;3.80;2.73;;;14.40;99.90;;;;;;5078892;28;20464;-64
2022/11/01 07:30:36;;;;;;;4.60;2.23;;;14.40;99.90;;;;;;5080118;28;20488;-63
2022/11/01 07:33:04;;;;;;;4.87;2.40;;;14.30;99.90;;;;;;5080034;28;20468;-62
2022/11/01 07:35:32;;;;;;;3.73;2.30;;;14.20;99.90;;;;;;5079320;28;20498;-63
2022/11/01 07:38:00;;;;;;;4.03;2.50;;;14.20;99.90;;;;;;5078836;28;20795;-62
2022/11/01 07:40:28;;;;;;;3.47;2.03;;;14.10;99.90;;;;;;5078784;28;20889;-61
2022/11/01 07:42:57;;;;;;;3.53;1.97;;;14.10;99.90;;;;;;5079206;28;20461;-63
2022/11/01 07:45:27;;;;;;;4.53;2.30;;;14.00;99.90;;;;;;5078406;28;20466;-63
2022/11/01 07:47:58;;;;;;;4.57;2.30;;;14.00;99.90;;;;;;5078803;28;20458;-63
2022/11/01 07:50:25;;;;;;;5.97;2.30;;;14.00;99.90;;;;;;5078769;28;20465;-64
2022/11/01 07:53:00;;;;;;;6.00;2.20;;;14.00;99.90;;;;;;5078351;28;20465;-63
2022/11/01 07:55:30;;;;;;;2.60;2.03;;;14.10;99.90;;;;;;5078633;28;20885;-63
2022/11/01 07:57:57;;;;;;;5.73;2.60;;;14.10;99.90;;;;;;5078763;28;20489;-64
2022/11/01 08:00:27;;;;;;;7.20;2.27;;;14.20;99.90;;;;;;5077817;28;20468;-63
2022/11/01 08:03:01;;;;;;;3.33;2.10;;;14.30;99.90;;;;;;5077344;28;20543;-62
2022/11/01 08:05:31;;;;;;;2.83;1.90;;;14.40;99.90;;;;;;5077932;28;20460;-63
2022/11/01 08:08:04;;;;;;;4.10;2.20;;;14.50;99.90;;;;;;5077867;28;20432;-63
2022/11/01 08:10:31;;;;;;;4.90;2.23;;;14.60;99.90;;;;;;5077860;28;20461;-63
2022/11/01 08:13:06;;;;;;;6.17;2.30;;;14.80;99.90;;;;;;5077486;28;20468;-63
2022/11/01 08:15:35;;;;;;;4.67;2.13;;;15.10;99.90;;;;;;5078311;28;20555;-62
2022/11/01 08:18:02;;;;;;;5.63;2.50;;;15.20;99.90;;;;;;5076132;28;20503;-63
2022/11/01 08:20:30;;;;;;;3.33;2.03;;;15.40;99.90;;;;;;5074608;28;20443;-63
2022/11/01 08:22:57;;;;;;;4.90;2.17;;;15.60;99.90;;;;;;5077422;28;20560;-63
2022/11/01 08:25:25;;;;;;;4.83;2.17;;;15.60;99.90;;;;;;5077892;28;20539;-64
2022/11/01 08:27:52;;;;;;;5.07;2.40;;;15.60;99.90;;;;;;5077934;28;20493;-63
2022/11/01 08:30:21;;;;;;;3.67;2.33;;;15.70;99.90;;;;;;5078181;28;20484;-64
2022/11/01 08:32:57;;;;;;;6.40;2.40;;;15.70;99.90;;;;;;5078433;28;20465;-63
2022/11/01 08:35:27;;;;;;;5.93;1.80;;;15.80;99.90;;;;;;5076634;28;20922;-63
2022/11/01 08:37:57;;;;;;;4.70;2.10;;;15.90;99.90;;;;;;5077645;28;20493;-64
2022/11/01 08:40:27;;;;;;;3.80;1.80;;;15.90;99.90;;;;;;5078337;28;20766;-63
2022/11/01 08:42:54;;;;;;;3.93;2.00;;;15.90;99.90;;;;;;5078268;28;20473;-64
2022/11/01 08:45:21;;;;;;;3.63;1.67;;;16.10;99.90;;;;;;5077867;28;20551;-63
2022/11/01 08:47:53;;;;;;;5.67;2.27;;;16.20;99.90;;;;;;5077779;28;20431;-64
2022/11/01 08:50:20;;;;;;;5.80;2.20;;;16.10;99.90;;;;;;5078129;28;20465;-63
2022/11/01 08:52:47;;;;;;;8.23;2.30;;;16.20;99.90;;;;;;5077864;28;20944;-62
2022/11/01 08:55:15;;;;;;;3.93;2.07;;;16.30;99.90;;;;;;5076185;28;20471;-64
2022/11/01 08:57:42;;;;;;;9.10;2.60;;;16.10;99.90;;;;;;5076585;28;20949;-63
2022/11/01 09:00:15;;;;;;;7.43;2.20;;;16.00;99.90;;;;;;5077115;28;20461;-63
2022/11/01 09:02:42;;;;;;;5.17;2.47;;;16.20;99.90;;;;;;5078054;28;20465;-63
2022/11/01 09:05:11;;;;;;;5.70;2.50;;;16.50;99.90;;;;;;5076709;28;20436;-64
2022/11/01 09:07:38;;;;;;;10.37;2.63;;;16.40;99.90;;;;;;5077858;28;20453;-63
2022/11/01 09:10:07;;;;;;;5.90;2.60;;;16.40;99.90;;;;;;5077550;28;20530;-64
2022/11/01 09:12:34;;;;;;;6.17;2.30;;;16.40;99.90;;;;;;5077185;28;20796;-63
2022/11/01 09:15:05;;;;;;;4.83;2.17;;;16.40;99.90;;;;;;5077563;28;20856;-65
2022/11/01 09:17:32;;;;;;;7.80;3.53;;;16.40;99.90;;;;;;5076725;28;20501;-63
2022/11/01 09:20:03;;;;;;;10.23;2.70;;;16.50;99.90;;;;;;5077174;28;20513;-63
2022/11/01 09:22:32;;;;;;;9.40;3.40;;;16.60;99.90;;;;;;5077915;28;20465;-63
2022/11/01 09:25:02;;;;;;;11.10;3.20;;;16.90;99.90;;;;;;5078046;28;20463;-63
2022/11/01 09:27:32;;;;;;;10.90;2.80;;;16.80;99.90;;;;;;5077191;28;20500;-64
2022/11/01 09:29:59;;;;;;;10.83;3.13;;;16.80;99.90;;;;;;5077360;28;20483;-65
2022/11/01 09:32:28;;;;;;;5.27;3.20;;;16.80;99.90;;;;;;5077429;28;20484;-63
2022/11/01 09:34:56;;;;;;;6.73;2.70;;;17.10;99.90;;;;;;5077347;28;20461;-63
2022/11/01 09:37:24;;;;;;;7.27;3.07;;;17.10;99.90;;;;;;5076787;28;20462;-63
2022/11/01 09:39:52;;;;;;;6.33;3.27;;;17.40;99.90;;;;;;5076523;28;20544;-62
2022/11/01 09:42:28;;;;;;;14.37;4.00;;;17.50;99.90;;;;;;5076271;28;20878;-64
2022/11/01 09:45:00;;;;;;;7.33;3.10;;;17.80;99.90;;;;;;5075052;28;20551;-64
2022/11/01 09:47:32;;;;;;;4.80;2.70;;;17.80;99.90;;;;;;5077527;28;20435;-63
2022/11/01 09:50:07;;;;;;;12.93;3.43;;;17.70;99.90;;;;;;5077107;28;20556;-64
2022/11/01 09:52:35;;;;;;;9.57;3.73;;;17.70;99.90;;;;;;5077452;28;20464;-61
2022/11/01 09:55:04;;;;;;;6.73;2.77;;;17.70;99.90;;;;;;5063996;28;20926;-62
2022/11/01 09:57:37;;;;;;;8.73;3.00;;;17.40;99.90;;;;;;5074650;28;20464;-62
2022/11/01 10:00:09;;;;;;;8.63;2.87;;;17.40;99.90;;;;;;5071771;28;20499;-62
2022/11/01 10:03:18;;;;;;;5.93;3.30;;;17.50;99.90;;;;;;5057454;28;20492;-61
2022/11/01 10:05:57;;;;;;;8.37;2.83;;;17.80;99.90;;;;;;5055228;28;20432;-59
2022/11/01 10:08:54;;;;;;;9.80;2.70;;;18.20;99.90;;;;;;5058001;28;20458;-62
2022/11/01 10:11:53;;;;;;;9.63;3.00;;;18.40;99.90;;;;;;5051702;28;20493;-63
2022/11/01 10:14:53;;;;;;;5.50;2.83;;;18.00;99.90;;;;;;5060558;28;20447;-61
2022/11/01 10:17:42;;;;;;;6.50;3.10;;;18.40;99.90;;;;;;5079115;28;20899;-62
2022/11/01 10:20:12;;;;;;;6.70;3.20;;;18.50;99.90;;;;;;5079733;28;20465;-63
2022/11/01 10:22:43;;;;;;;6.80;3.03;;;18.40;99.90;;;;;;5077997;28;20436;-61
2022/11/01 10:25:21;;;;;;;6.83;3.30;;;18.20;99.90;;;;;;5074986;28;20452;-61
2022/11/01 10:27:59;;;;;;;8.03;3.10;;;18.70;99.90;;;;;;5076795;28;20452;-61
2022/11/01 10:30:36;;;;;;;8.47;3.17;;;18.70;99.90;;;;;;5077060;28;20453;-62
2022/11/01 10:33:31;;;;;;;9.07;2.73;;;18.90;99.90;;;;;;5077043;28;20877;-63
2022/11/01 10:36:02;;;;;;;6.30;3.17;;;19.00;99.90;;;;;;5074996;28;20456;-61
2022/11/01 10:38:38;;;;;;;6.13;3.10;;;18.70;99.90;;;;;;5076718;28;20487;-62
2022/11/01 10:41:23;;;;;;;4.80;2.50;;;18.50;99.90;;;;;;5076738;28;20456;-61
2022/11/01 10:43:55;;;;;;;8.30;3.60;;;18.60;99.90;;;;;;5078246;28;20964;-61
2022/11/01 10:46:29;;;;;;;7.40;2.90;;;18.70;99.90;;;;;;5080426;28;20464;-61
2022/11/01 10:49:01;;;;;;;6.67;2.90;;;18.70;99.90;;;;;;5079548;28;20457;-63
2022/11/01 10:51:31;;;;;;;16.20;3.27;;;18.80;99.90;;;;;;5059226;28;20471;-60
2022/11/01 10:54:02;;;;;;;6.10;2.93;;;18.70;99.90;;;;;;5072598;28;20944;-62
2022/11/01 10:56:40;;;;;;;9.90;2.73;;;18.60;99.90;;;;;;5059784;28;20498;-62
2022/11/01 10:59:15;;;;;;;7.17;3.03;;;18.60;99.90;;;;;;5057680;28;20496;-62
2022/11/01 11:01:47;;;;;;;5.27;3.53;;;18.70;99.90;;;;;;5069387;28;20459;-61
2022/11/01 11:04:21;;;;;;;5.03;2.93;;;18.50;99.90;;;;;;5079547;28;20767;-62
2022/11/01 11:06:49;;;;;;;4.97;2.57;;;18.60;99.90;;;;;;5075375;28;20443;-62
2022/11/01 11:09:22;;;;;;;8.50;2.93;;;18.50;99.90;;;;;;5057567;28;20497;-62
2022/11/01 11:11:51;;;;;;;5.80;3.13;;;18.90;99.90;;;;;;5057246;28;20877;-62
2022/11/01 11:14:21;;;;;;;5.87;3.17;;;18.90;99.90;;;;;;5059092;28;20469;-61
2022/11/01 11:16:51;;;;;;;5.33;2.70;;;18.80;99.90;;;;;;5059634;28;20480;-60
2022/11/01 11:19:25;;;;;;;9.83;3.40;;;19.10;99.90;;;;;;5058001;28;20501;-61
2022/11/01 11:21:54;;;;;;;6.53;3.50;;;19.30;99.90;;;;;;5057820;28;20466;-60
2022/11/01 11:24:26;;;;;;;7.23;2.70;;;19.20;99.90;;;;;;5073008;28;20432;-61
2022/11/01 11:26:56;;;;;;;7.43;3.10;;;19.10;99.90;;;;;;5076960;28;20446;-60
2022/11/01 11:29:48;;;;;;;8.73;3.60;;;19.60;99.90;;;;;;5076992;28;20544;-59
2022/11/01 11:32:18;;;;;;;5.80;2.20;;;19.60;99.90;;;;;;5074766;28;20481;-60
2022/11/01 11:34:52;;;;;;;4.70;2.30;;;19.50;99.90;;;;;;5078264;28;20492;-60
2022/11/01 11:37:22;;;;;;;7.97;3.13;;;19.20;99.90;;;;;;5078377;28;20471;-62
2022/11/01 11:40:06;;;;;;;6.70;2.50;;;19.20;99.90;;;;;;5078194;28;20495;-58
2022/11/01 11:42:41;;;;;;;6.60;3.30;;;19.30;99.90;;;;;;5078872;28;20461;-61
2022/11/01 11:45:28;;;;;;;9.70;2.63;;;19.20;99.90;;;;;;5074830;28;20476;-60
2022/11/01 11:47:56;;;;;;;13.30;3.20;;;19.20;99.90;;;;;;5076184;28;20486;-60
2022/11/01 11:50:34;;;;;;;5.57;2.67;;;19.00;99.90;;;;;;5078216;28;20813;-61
2022/11/01 11:53:07;;;;;;;6.03;2.53;;;18.90;99.90;;;;;;5078862;28;20810;-61
2022/11/01 11:55:41;;;;;;;12.70;2.60;;;18.90;99.90;;;;;;5078595;28;20857;-60
2022/11/01 11:58:19;;;;;;;8.47;3.00;;;19.20;99.90;;;;;;5078174;28;20465;-64
2022/11/01 12:00:52;;;;;;;4.30;2.77;;;19.40;99.90;;;;;;5078813;28;20515;-63
2022/11/01 12:03:20;;;;;;;5.50;2.13;;;19.30;99.90;;;;;;5075781;28;20442;-63
2022/11/01 12:05:59;;;;;;;4.30;2.93;;;19.50;99.90;;;;;;5076835;28;20885;-63
2022/11/01 12:08:52;;;;;;;3.10;2.47;;;19.80;99.90;;;;;;5069356;28;20890;-63
2022/11/01 12:11:21;;;;;;;5.57;2.90;;;19.80;99.90;;;;;;5073711;28;20807;-63
2022/11/01 12:14:02;;;;;;;5.23;2.57;;;20.00;99.90;;;;;;5077108;28;20557;-62
2022/11/01 12:16:40;;;;;;;6.23;3.00;;;20.00;99.90;;;;;;5077842;28;20457;-63
2022/11/01 12:19:24;;;;;;;6.27;2.87;;;20.00;99.90;;;;;;5076028;28;20467;-65
2022/11/01 12:21:55;;;;;;;4.40;2.20;;;19.70;99.90;;;;;;5062388;28;20592;-62
2022/11/01 12:24:26;;;;;;;5.47;2.53;;;19.70;99.90;;;;;;5077704;28;20461;-62
2022/11/01 12:26:56;;;;;;;5.03;2.97;;;19.60;99.90;;;;;;5077435;28;20487;-63
2022/11/01 12:29:30;;;;;;;4.20;2.93;;;19.20;99.90;;;;;;5076454;28;20743;-62
2022/11/01 12:32:06;;;;;;;5.77;3.10;;;19.20;99.90;;;;;;5076090;28;20747;-62
2022/11/01 12:34:38;;;;;;;7.90;3.50;;;19.10;99.90;;;;;;5076282;28;20763;-62
2022/11/01 12:37:13;;;;;;;5.23;2.47;;;19.20;99.90;;;;;;5077074;28;20469;-62
2022/11/01 12:39:51;;;;;;;9.20;3.53;;;19.00;99.90;;;;;;5076853;28;20791;-62
2022/11/01 12:42:24;;;;;;;8.10;3.07;;;18.90;99.90;;;;;;5076624;28;20496;-62
2022/11/01 12:45:03;;;;;;;8.70;2.60;;;19.00;99.90;;;;;;5071247;28;20483;-62
2022/11/01 12:47:39;;;;;;;7.33;2.93;;;19.00;99.90;;;;;;5074984;28;20432;-62
2022/11/01 12:50:15;;;;;;;9.77;3.20;;;18.90;99.90;;;;;;5074978;28;20556;-62
2022/11/01 12:52:48;;;;;;;6.10;2.93;;;18.90;99.90;;;;;;5072552;28;20961;-62
2022/11/01 12:55:22;;;;;;;7.77;2.53;;;18.80;99.90;;;;;;5075020;28;20504;-62
2022/11/01 12:57:52;;;;;;;14.93;3.10;;;18.60;99.90;;;;;;5074497;28;20519;-62
2022/11/01 13:00:24;;;;;;;6.73;2.43;;;18.40;99.90;;;;;;5077082;28;20492;-62
2022/11/01 13:03:05;;;;;;;9.43;4.00;;;18.50;99.90;;;;;;5064843;28;20466;-62
2022/11/01 13:05:44;;;;;;;5.80;2.80;;;18.60;99.90;;;;;;5057419;28;20462;-62
2022/11/01 13:08:25;;;;;;;4.53;2.87;;;18.50;99.90;;;;;;5075151;28;20465;-62
2022/11/01 13:10:55;;;;;;;3.23;2.53;;;18.40;99.90;;;;;;5076222;28;20503;-63
2022/11/01 13:13:30;;;;;;;8.20;2.80;;;18.30;99.90;;;;;;5074912;28;20467;-60
2022/11/01 13:16:04;;;;;;;7.80;3.23;;;18.30;99.90;;;;;;5074731;28;20461;-61
2022/11/01 13:18:50;;;;;;;6.03;2.77;;;18.30;99.90;;;;;;5072875;28;20457;-63
2022/11/01 13:21:27;;;;;;;4.90;2.70;;;18.20;99.90;;;;;;5074976;28;20479;-62
2022/11/01 13:24:01;;;;;;;6.97;3.33;;;18.20;99.90;;;;;;5075461;28;20444;-60